sensor_id;sensor_type;location;lat;lon;timestamp;temperature;humidity
37886;DHT22;23726;52.520;13.434;2023-02-12T00:01:09;21.70;44.40
37886;DHT22;23726;52.520;13.434;2023-02-12T00:03:36;21.70;44.30
37886;DHT22;23726;52.520;13.434;2023-02-12T00:06:02;21.70;44.40
37886;DHT22;23726;52.520;13.434;2023-02-12T00:08:28;21.80;44.50
37886;DHT22;23726;52.520;13.434;2023-02-12T00:10:53;21.70;44.40
37886;DHT22;23726;52.520;13.434;2023-02-12T00:13:19;21.80;44.50
37886;DHT22;23726;52.520;13.434;2023-02-12T00:15:45;21.70;44.40
37886;DHT22;23726;52.520;13.434;2023-02-12T00:18:11;21.70;44.50
37886;DHT22;23726;52.520;13.434;2023-02-12T00:20:37;21.70;44.40
37886;DHT22;23726;52.520;13.434;2023-02-12T00:23:03;21.70;44.40
37886;DHT22;23726;52.520;13.434;2023-02-12T00:25:29;21.70;44.40
37886;DHT22;23726;52.520;13.434;2023-02-12T00:27:54;21.70;44.40
37886;DHT22;23726;52.520;13.434;2023-02-12T00:30:22;21.70;44.50
37886;DHT22;23726;52.520;13.434;2023-02-12T00:32:48;21.80;44.60
37886;DHT22;23726;52.520;13.434;2023-02-12T00:35:13;21.70;44.50
37886;DHT22;23726;52.520;13.434;2023-02-12T00:37:39;21.70;44.50
37886;DHT22;23726;52.520;13.434;2023-02-12T00:40:06;21.70;44.50
37886;DHT22;23726;52.520;13.434;2023-02-12T00:42:32;21.70;44.50
37886;DHT22;23726;52.520;13.434;2023-02-12T00:44:59;21.70;44.50
37886;DHT22;23726;52.520;13.434;2023-02-12T00:47:24;21.70;44.80
37886;DHT22;23726;52.520;13.434;2023-02-12T00:49:50;21.70;44.60
37886;DHT22;23726;52.520;13.434;2023-02-12T00:52:15;21.80;44.70
37886;DHT22;23726;52.520;13.434;2023-02-12T00:54:42;21.70;44.50
37886;DHT22;23726;52.520;13.434;2023-02-12T00:57:09;21.70;44.50
37886;DHT22;23726;52.520;13.434;2023-02-12T00:59:34;21.70;44.50
37886;DHT22;23726;52.520;13.434;2023-02-12T01:02:02;21.70;44.50
37886;DHT22;23726;52.520;13.434;2023-02-12T01:04:28;21.70;44.60
37886;DHT22;23726;52.520;13.434;2023-02-12T01:06:54;21.70;44.50
37886;DHT22;23726;52.520;13.434;2023-02-12T01:09:20;21.70;44.60
37886;DHT22;23726;52.520;13.434;2023-02-12T01:11:45;21.70;44.60
37886;DHT22;23726;52.520;13.434;2023-02-12T01:14:11;21.70;44.50
37886;DHT22;23726;52.520;13.434;2023-02-12T01:16:36;21.70;44.50
37886;DHT22;23726;52.520;13.434;2023-02-12T01:19:03;21.70;44.50
37886;DHT22;23726;52.520;13.434;2023-02-12T01:21:31;21.70;44.60
37886;DHT22;23726;52.520;13.434;2023-02-12T01:23:57;21.70;44.60
37886;DHT22;23726;52.520;13.434;2023-02-12T01:26:24;21.70;44.60
37886;DHT22;23726;52.520;13.434;2023-02-12T01:28:55;21.70;44.70
37886;DHT22;23726;52.520;13.434;2023-02-12T01:31:26;21.70;44.70
37886;DHT22;23726;52.520;13.434;2023-02-12T01:33:56;21.70;44.70
37886;DHT22;23726;52.520;13.434;2023-02-12T01:36:22;21.70;44.70
37886;DHT22;23726;52.520;13.434;2023-02-12T01:38:49;21.70;44.70
37886;DHT22;23726;52.520;13.434;2023-02-12T01:41:22;21.70;44.70
37886;DHT22;23726;52.520;13.434;2023-02-12T01:44:11;21.70;44.70
37886;DHT22;23726;52.520;13.434;2023-02-12T01:46:37;21.70;44.70
37886;DHT22;23726;52.520;13.434;2023-02-12T01:49:07;21.70;44.70
37886;DHT22;23726;52.520;13.434;2023-02-12T01:51:35;21.70;44.80
37886;DHT22;23726;52.520;13.434;2023-02-12T01:54:04;21.70;44.70
37886;DHT22;23726;52.520;13.434;2023-02-12T01:56:31;21.70;44.80
37886;DHT22;23726;52.520;13.434;2023-02-12T01:58:57;21.70;44.90
37886;DHT22;23726;52.520;13.434;2023-02-12T02:01:28;21.70;44.80
37886;DHT22;23726;52.520;13.434;2023-02-12T02:03:55;21.70;44.80
37886;DHT22;23726;52.520;13.434;2023-02-12T02:06:27;21.70;44.80
37886;DHT22;23726;52.520;13.434;2023-02-12T02:08:54;21.70;45.00
37886;DHT22;23726;52.520;13.434;2023-02-12T02:11:21;21.70;45.00
37886;DHT22;23726;52.520;13.434;2023-02-12T02:14:05;21.70;45.00
37886;DHT22;23726;52.520;13.434;2023-02-12T02:17:00;21.70;45.00
37886;DHT22;23726;52.520;13.434;2023-02-12T02:25:14;21.70;45.00
37886;DHT22;23726;52.520;13.434;2023-02-12T02:28:02;21.70;45.00
37886;DHT22;23726;52.520;13.434;2023-02-12T02:30:36;21.70;45.00
37886;DHT22;23726;52.520;13.434;2023-02-12T02:33:21;21.70;45.10
37886;DHT22;23726;52.520;13.434;2023-02-12T02:36:17;21.70;45.20
37886;DHT22;23726;52.520;13.434;2023-02-12T02:41:37;21.70;45.00
37886;DHT22;23726;52.520;13.434;2023-02-12T02:44:12;21.70;45.10
37886;DHT22;23726;52.520;13.434;2023-02-12T02:46:44;21.70;45.10
37886;DHT22;23726;52.520;13.434;2023-02-12T02:49:22;21.70;45.10
37886;DHT22;23726;52.520;13.434;2023-02-12T02:51:55;21.70;45.10
37886;DHT22;23726;52.520;13.434;2023-02-12T02:54:32;21.70;45.10
37886;DHT22;23726;52.520;13.434;2023-02-12T02:57:13;21.70;45.10
37886;DHT22;23726;52.520;13.434;2023-02-12T02:59:47;21.70;45.00
37886;DHT22;23726;52.520;13.434;2023-02-12T03:02:20;21.70;45.10
37886;DHT22;23726;52.520;13.434;2023-02-12T03:05:03;21.70;45.10
37886;DHT22;23726;52.520;13.434;2023-02-12T03:07:35;21.70;45.10
37886;DHT22;23726;52.520;13.434;2023-02-12T03:10:10;21.70;45.10
37886;DHT22;23726;52.520;13.434;2023-02-12T03:13:01;21.70;45.10
37886;DHT22;23726;52.520;13.434;2023-02-12T03:16:31;21.70;45.10
37886;DHT22;23726;52.520;13.434;2023-02-12T03:18:35;21.70;45.10
37886;DHT22;23726;52.520;13.434;2023-02-12T03:21:08;21.70;45.10
37886;DHT22;23726;52.520;13.434;2023-02-12T03:23:41;21.70;45.10
37886;DHT22;23726;52.520;13.434;2023-02-12T03:26:18;21.70;45.10
37886;DHT22;23726;52.520;13.434;2023-02-12T03:28:46;21.70;45.10
37886;DHT22;23726;52.520;13.434;2023-02-12T03:34:12;21.70;45.10
37886;DHT22;23726;52.520;13.434;2023-02-12T03:37:01;21.70;45.10
37886;DHT22;23726;52.520;13.434;2023-02-12T03:42:30;21.70;45.10
37886;DHT22;23726;52.520;13.434;2023-02-12T03:45:43;21.70;45.10
37886;DHT22;23726;52.520;13.434;2023-02-12T03:48:55;21.70;45.20
37886;DHT22;23726;52.520;13.434;2023-02-12T03:51:37;21.70;45.20
37886;DHT22;23726;52.520;13.434;2023-02-12T03:54:05;21.70;45.20
37886;DHT22;23726;52.520;13.434;2023-02-12T03:56:43;21.70;45.20
37886;DHT22;23726;52.520;13.434;2023-02-12T03:59:13;21.70;45.10
37886;DHT22;23726;52.520;13.434;2023-02-12T04:01:39;21.70;45.30
37886;DHT22;23726;52.520;13.434;2023-02-12T04:04:06;21.70;45.10
37886;DHT22;23726;52.520;13.434;2023-02-12T04:06:32;21.70;45.00
37886;DHT22;23726;52.520;13.434;2023-02-12T04:09:09;21.70;45.10
37886;DHT22;23726;52.520;13.434;2023-02-12T04:26:02;21.70;45.30
37886;DHT22;23726;52.520;13.434;2023-02-12T04:28:55;21.70;45.10
37886;DHT22;23726;52.520;13.434;2023-02-12T04:31:37;21.70;45.10
37886;DHT22;23726;52.520;13.434;2023-02-12T04:34:14;21.70;45.30
37886;DHT22;23726;52.520;13.434;2023-02-12T04:37:08;21.70;45.30
37886;DHT22;23726;52.520;13.434;2023-02-12T04:39:37;21.70;45.20
37886;DHT22;23726;52.520;13.434;2023-02-12T04:42:04;21.70;45.20
37886;DHT22;23726;52.520;13.434;2023-02-12T04:44:32;21.70;45.20
37886;DHT22;23726;52.520;13.434;2023-02-12T04:46:59;21.70;45.30
37886;DHT22;23726;52.520;13.434;2023-02-12T04:49:25;21.70;45.20
37886;DHT22;23726;52.520;13.434;2023-02-12T04:51:51;21.70;45.30
37886;DHT22;23726;52.520;13.434;2023-02-12T04:54:18;21.70;45.20
37886;DHT22;23726;52.520;13.434;2023-02-12T04:56:45;21.70;45.20
37886;DHT22;23726;52.520;13.434;2023-02-12T04:59:11;21.70;45.30
37886;DHT22;23726;52.520;13.434;2023-02-12T05:01:38;21.70;45.20
37886;DHT22;23726;52.520;13.434;2023-02-12T05:04:05;21.70;45.20
37886;DHT22;23726;52.520;13.434;2023-02-12T05:06:34;21.70;45.20
37886;DHT22;23726;52.520;13.434;2023-02-12T05:09:00;21.70;45.30
37886;DHT22;23726;52.520;13.434;2023-02-12T05:11:26;21.70;45.20
37886;DHT22;23726;52.520;13.434;2023-02-12T05:13:52;21.70;45.20
37886;DHT22;23726;52.520;13.434;2023-02-12T05:16:19;21.70;45.20
37886;DHT22;23726;52.520;13.434;2023-02-12T05:18:45;21.70;45.20
37886;DHT22;23726;52.520;13.434;2023-02-12T05:21:11;21.70;45.30
37886;DHT22;23726;52.520;13.434;2023-02-12T05:23:39;21.70;45.30
37886;DHT22;23726;52.520;13.434;2023-02-12T05:26:09;21.70;45.30
37886;DHT22;23726;52.520;13.434;2023-02-12T05:28:36;21.70;45.30
37886;DHT22;23726;52.520;13.434;2023-02-12T05:31:04;21.70;45.30
37886;DHT22;23726;52.520;13.434;2023-02-12T05:33:30;21.70;45.30
37886;DHT22;23726;52.520;13.434;2023-02-12T05:36:02;21.70;45.30
37886;DHT22;23726;52.520;13.434;2023-02-12T05:38:28;21.70;45.30
37886;DHT22;23726;52.520;13.434;2023-02-12T05:40:54;21.70;45.30
37886;DHT22;23726;52.520;13.434;2023-02-12T05:43:25;21.70;45.30
37886;DHT22;23726;52.520;13.434;2023-02-12T05:45:50;21.70;45.30
37886;DHT22;23726;52.520;13.434;2023-02-12T05:48:17;21.70;45.30
37886;DHT22;23726;52.520;13.434;2023-02-12T05:50:44;21.70;45.30
37886;DHT22;23726;52.520;13.434;2023-02-12T05:53:10;21.70;45.30
37886;DHT22;23726;52.520;13.434;2023-02-12T05:55:35;21.70;45.30
37886;DHT22;23726;52.520;13.434;2023-02-12T05:58:01;21.70;45.40
37886;DHT22;23726;52.520;13.434;2023-02-12T06:00:26;21.70;45.30
37886;DHT22;23726;52.520;13.434;2023-02-12T06:02:52;21.70;45.30
37886;DHT22;23726;52.520;13.434;2023-02-12T06:05:20;21.70;45.30
37886;DHT22;23726;52.520;13.434;2023-02-12T06:07:46;21.70;45.30
37886;DHT22;23726;52.520;13.434;2023-02-12T06:10:12;21.70;45.40
37886;DHT22;23726;52.520;13.434;2023-02-12T06:12:38;21.70;45.40
37886;DHT22;23726;52.520;13.434;2023-02-12T06:15:03;21.70;45.40
37886;DHT22;23726;52.520;13.434;2023-02-12T06:17:29;21.70;45.40
37886;DHT22;23726;52.520;13.434;2023-02-12T06:19:55;21.70;45.40
37886;DHT22;23726;52.520;13.434;2023-02-12T06:22:21;21.70;45.40
37886;DHT22;23726;52.520;13.434;2023-02-12T06:24:47;21.70;45.40
37886;DHT22;23726;52.520;13.434;2023-02-12T06:27:13;21.70;45.40
37886;DHT22;23726;52.520;13.434;2023-02-12T06:29:38;21.70;45.40
37886;DHT22;23726;52.520;13.434;2023-02-12T06:32:04;21.70;45.40
37886;DHT22;23726;52.520;13.434;2023-02-12T06:34:33;21.70;45.40
37886;DHT22;23726;52.520;13.434;2023-02-12T06:36:58;21.70;45.40
37886;DHT22;23726;52.520;13.434;2023-02-12T06:39:24;21.70;45.50
37886;DHT22;23726;52.520;13.434;2023-02-12T06:41:49;21.70;45.40
37886;DHT22;23726;52.520;13.434;2023-02-12T06:44:15;21.70;45.40
37886;DHT22;23726;52.520;13.434;2023-02-12T06:46:41;21.70;45.40
37886;DHT22;23726;52.520;13.434;2023-02-12T06:49:07;21.70;45.50
37886;DHT22;23726;52.520;13.434;2023-02-12T06:51:32;21.70;45.40
37886;DHT22;23726;52.520;13.434;2023-02-12T06:53:58;21.70;45.40
37886;DHT22;23726;52.520;13.434;2023-02-12T06:56:25;21.70;45.40
37886;DHT22;23726;52.520;13.434;2023-02-12T06:58:56;21.70;45.40
37886;DHT22;23726;52.520;13.434;2023-02-12T07:01:26;21.70;45.50
37886;DHT22;23726;52.520;13.434;2023-02-12T07:03:55;21.70;45.50
37886;DHT22;23726;52.520;13.434;2023-02-12T07:06:21;21.70;45.40
37886;DHT22;23726;52.520;13.434;2023-02-12T07:08:48;21.70;45.50
37886;DHT22;23726;52.520;13.434;2023-02-12T07:11:14;21.70;45.40
37886;DHT22;23726;52.520;13.434;2023-02-12T07:13:40;21.70;45.40
37886;DHT22;23726;52.520;13.434;2023-02-12T07:16:11;21.70;45.40
37886;DHT22;23726;52.520;13.434;2023-02-12T07:18:38;21.70;45.50
37886;DHT22;23726;52.520;13.434;2023-02-12T07:21:06;21.70;45.50
37886;DHT22;23726;52.520;13.434;2023-02-12T07:23:36;21.70;45.50
37886;DHT22;23726;52.520;13.434;2023-02-12T07:26:04;21.70;45.50
37886;DHT22;23726;52.520;13.434;2023-02-12T07:28:33;21.70;45.50
37886;DHT22;23726;52.520;13.434;2023-02-12T07:31:01;21.80;45.60
37886;DHT22;23726;52.520;13.434;2023-02-12T07:33:30;21.80;45.60
37886;DHT22;23726;52.520;13.434;2023-02-12T07:35:59;21.70;45.50
37886;DHT22;23726;52.520;13.434;2023-02-12T07:38:26;21.70;46.00
37886;DHT22;23726;52.520;13.434;2023-02-12T07:40:52;21.80;45.50
37886;DHT22;23726;52.520;13.434;2023-02-12T07:43:18;21.80;45.60
37886;DHT22;23726;52.520;13.434;2023-02-12T07:45:43;21.80;45.60
37886;DHT22;23726;52.520;13.434;2023-02-12T07:48:11;21.80;45.50
37886;DHT22;23726;52.520;13.434;2023-02-12T07:50:37;21.80;45.60
37886;DHT22;23726;52.520;13.434;2023-02-12T07:53:02;21.80;45.60
37886;DHT22;23726;52.520;13.434;2023-02-12T07:55:28;21.80;45.60
37886;DHT22;23726;52.520;13.434;2023-02-12T07:57:53;21.80;45.60
37886;DHT22;23726;52.520;13.434;2023-02-12T08:00:19;21.80;45.60
37886;DHT22;23726;52.520;13.434;2023-02-12T08:02:51;21.80;45.50
37886;DHT22;23726;52.520;13.434;2023-02-12T08:05:19;21.80;45.60
37886;DHT22;23726;52.520;13.434;2023-02-12T08:07:45;21.80;45.50
37886;DHT22;23726;52.520;13.434;2023-02-12T08:10:11;21.80;45.60
37886;DHT22;23726;52.520;13.434;2023-02-12T08:12:36;21.80;45.60
37886;DHT22;23726;52.520;13.434;2023-02-12T08:15:02;21.80;45.60
37886;DHT22;23726;52.520;13.434;2023-02-12T08:17:28;21.80;45.60
37886;DHT22;23726;52.520;13.434;2023-02-12T08:19:53;21.80;45.60
37886;DHT22;23726;52.520;13.434;2023-02-12T08:22:20;21.80;45.60
37886;DHT22;23726;52.520;13.434;2023-02-12T08:24:46;21.80;45.60
37886;DHT22;23726;52.520;13.434;2023-02-12T08:27:12;21.80;45.60
37886;DHT22;23726;52.520;13.434;2023-02-12T08:29:37;21.80;45.60
37886;DHT22;23726;52.520;13.434;2023-02-12T08:32:04;21.80;45.50
37886;DHT22;23726;52.520;13.434;2023-02-12T08:34:33;21.80;45.50
37886;DHT22;23726;52.520;13.434;2023-02-12T08:37:00;21.80;45.60
37886;DHT22;23726;52.520;13.434;2023-02-12T08:39:27;21.80;45.60
37886;DHT22;23726;52.520;13.434;2023-02-12T08:41:55;21.80;45.60
37886;DHT22;23726;52.520;13.434;2023-02-12T08:44:20;21.80;45.50
37886;DHT22;23726;52.520;13.434;2023-02-12T08:46:48;21.80;45.60
37886;DHT22;23726;52.520;13.434;2023-02-12T08:49:17;21.80;45.60
37886;DHT22;23726;52.520;13.434;2023-02-12T08:51:47;21.80;45.60
37886;DHT22;23726;52.520;13.434;2023-02-12T08:54:16;21.80;45.60
37886;DHT22;23726;52.520;13.434;2023-02-12T08:56:44;21.80;45.60
37886;DHT22;23726;52.520;13.434;2023-02-12T08:59:12;21.80;45.60
37886;DHT22;23726;52.520;13.434;2023-02-12T09:01:39;21.80;46.20
37886;DHT22;23726;52.520;13.434;2023-02-12T09:04:13;21.80;45.60
37886;DHT22;23726;52.520;13.434;2023-02-12T09:06:39;21.80;45.60
37886;DHT22;23726;52.520;13.434;2023-02-12T09:09:05;21.80;46.10
37886;DHT22;23726;52.520;13.434;2023-02-12T09:11:33;21.80;45.70
37886;DHT22;23726;52.520;13.434;2023-02-12T09:14:05;21.80;45.60
37886;DHT22;23726;52.520;13.434;2023-02-12T09:16:32;21.80;45.60
37886;DHT22;23726;52.520;13.434;2023-02-12T09:19:00;21.80;45.60
37886;DHT22;23726;52.520;13.434;2023-02-12T09:21:27;21.80;45.60
37886;DHT22;23726;52.520;13.434;2023-02-12T09:23:53;21.80;45.60
37886;DHT22;23726;52.520;13.434;2023-02-12T09:26:21;21.80;45.70
37886;DHT22;23726;52.520;13.434;2023-02-12T09:28:48;21.80;45.60
37886;DHT22;23726;52.520;13.434;2023-02-12T09:31:17;21.80;45.60
37886;DHT22;23726;52.520;13.434;2023-02-12T09:33:45;21.80;45.60
37886;DHT22;23726;52.520;13.434;2023-02-12T09:36:14;21.80;45.60
37886;DHT22;23726;52.520;13.434;2023-02-12T09:38:41;21.80;45.60
37886;DHT22;23726;52.520;13.434;2023-02-12T09:46:29;21.80;45.60
37886;DHT22;23726;52.520;13.434;2023-02-12T09:49:09;21.80;45.60
37886;DHT22;23726;52.520;13.434;2023-02-12T09:51:41;21.80;45.60
37886;DHT22;23726;52.520;13.434;2023-02-12T09:54:14;21.80;45.60
37886;DHT22;23726;52.520;13.434;2023-02-12T09:56:45;21.80;45.70
37886;DHT22;23726;52.520;13.434;2023-02-12T09:59:25;21.80;45.60
37886;DHT22;23726;52.520;13.434;2023-02-12T10:01:53;21.80;45.60
37886;DHT22;23726;52.520;13.434;2023-02-12T10:04:19;21.80;45.70
37886;DHT22;23726;52.520;13.434;2023-02-12T10:06:52;21.80;45.70
37886;DHT22;23726;52.520;13.434;2023-02-12T10:21:02;21.80;45.90
37886;DHT22;23726;52.520;13.434;2023-02-12T10:26:50;21.80;45.90
37886;DHT22;23726;52.520;13.434;2023-02-12T10:29:26;21.80;45.90
37886;DHT22;23726;52.520;13.434;2023-02-12T10:32:29;21.80;45.90
37886;DHT22;23726;52.520;13.434;2023-02-12T10:34:58;21.80;45.90
37886;DHT22;23726;52.520;13.434;2023-02-12T10:37:38;21.80;45.90
37886;DHT22;23726;52.520;13.434;2023-02-12T10:42:42;21.80;45.80
37886;DHT22;23726;52.520;13.434;2023-02-12T10:45:35;21.80;45.80
37886;DHT22;23726;52.520;13.434;2023-02-12T10:48:14;21.80;45.80
37886;DHT22;23726;52.520;13.434;2023-02-12T10:51:07;21.80;45.80
37886;DHT22;23726;52.520;13.434;2023-02-12T10:53:42;21.80;45.80
37886;DHT22;23726;52.520;13.434;2023-02-12T10:56:14;21.80;45.80
37886;DHT22;23726;52.520;13.434;2023-02-12T10:58:51;21.90;46.00
37886;DHT22;23726;52.520;13.434;2023-02-12T11:01:34;21.90;45.90
37886;DHT22;23726;52.520;13.434;2023-02-12T11:07:16;21.30;40.90
37886;DHT22;23726;52.520;13.434;2023-02-12T11:09:44;21.20;43.20
37886;DHT22;23726;52.520;13.434;2023-02-12T11:14:52;21.40;43.60
37886;DHT22;23726;52.520;13.434;2023-02-12T11:17:34;21.50;43.70
37886;DHT22;23726;52.520;13.434;2023-02-12T11:22:52;21.50;43.60
37886;DHT22;23726;52.520;13.434;2023-02-12T11:25:23;21.50;43.70
37886;DHT22;23726;52.520;13.434;2023-02-12T11:28:09;21.60;43.60
37886;DHT22;23726;52.520;13.434;2023-02-12T11:31:03;21.60;43.80
37886;DHT22;23726;52.520;13.434;2023-02-12T11:33:42;21.60;43.80
37886;DHT22;23726;52.520;13.434;2023-02-12T11:36:19;21.60;43.70
37886;DHT22;23726;52.520;13.434;2023-02-12T11:38:51;21.60;43.80
37886;DHT22;23726;52.520;13.434;2023-02-12T11:41:36;21.60;43.80
37886;DHT22;23726;52.520;13.434;2023-02-12T11:44:20;21.70;44.00
37886;DHT22;23726;52.520;13.434;2023-02-12T11:46:53;21.70;43.80
37886;DHT22;23726;52.520;13.434;2023-02-12T11:49:23;21.70;43.90
37886;DHT22;23726;52.520;13.434;2023-02-12T11:51:51;21.70;43.80
37886;DHT22;23726;52.520;13.434;2023-02-12T11:54:26;21.70;43.80
37886;DHT22;23726;52.520;13.434;2023-02-12T11:56:55;21.70;43.80
37886;DHT22;23726;52.520;13.434;2023-02-12T12:03:10;21.80;43.60
37886;DHT22;23726;52.520;13.434;2023-02-12T12:05:41;21.70;44.00
37886;DHT22;23726;52.520;13.434;2023-02-12T12:08:39;21.70;43.50
37886;DHT22;23726;52.520;13.434;2023-02-12T12:11:10;21.70;43.30
37886;DHT22;23726;52.520;13.434;2023-02-12T12:13:53;21.70;43.20
37886;DHT22;23726;52.520;13.434;2023-02-12T12:16:35;21.70;43.20
37886;DHT22;23726;52.520;13.434;2023-02-12T12:19:27;21.70;43.20
37886;DHT22;23726;52.520;13.434;2023-02-12T12:25:48;21.70;43.20
37886;DHT22;23726;52.520;13.434;2023-02-12T12:28:35;21.70;43.30
37886;DHT22;23726;52.520;13.434;2023-02-12T12:31:22;21.70;43.40
37886;DHT22;23726;52.520;13.434;2023-02-12T12:34:17;21.70;43.90
37886;DHT22;23726;52.520;13.434;2023-02-12T12:45:06;21.70;43.50
37886;DHT22;23726;52.520;13.434;2023-02-12T12:56:34;21.70;43.60
37886;DHT22;23726;52.520;13.434;2023-02-12T13:01:45;21.80;43.50
37886;DHT22;23726;52.520;13.434;2023-02-12T13:04:51;21.80;43.50
37886;DHT22;23726;52.520;13.434;2023-02-12T13:20:53;21.80;43.10
37886;DHT22;23726;52.520;13.434;2023-02-12T13:23:53;21.90;43.20
37886;DHT22;23726;52.520;13.434;2023-02-12T13:26:32;21.80;43.20
37886;DHT22;23726;52.520;13.434;2023-02-12T13:29:14;21.90;43.30
37886;DHT22;23726;52.520;13.434;2023-02-12T13:34:36;21.90;43.30
37886;DHT22;23726;52.520;13.434;2023-02-12T13:37:05;21.90;43.40
37886;DHT22;23726;52.520;13.434;2023-02-12T13:39:36;21.90;43.40
37886;DHT22;23726;52.520;13.434;2023-02-12T13:44:44;22.00;43.40
37886;DHT22;23726;52.520;13.434;2023-02-12T13:47:28;22.00;43.40
37886;DHT22;23726;52.520;13.434;2023-02-12T14:01:01;22.00;43.60
37886;DHT22;23726;52.520;13.434;2023-02-12T14:03:30;22.00;43.60
37886;DHT22;23726;52.520;13.434;2023-02-12T14:06:19;22.00;43.60
37886;DHT22;23726;52.520;13.434;2023-02-12T14:09:06;22.00;43.50
37886;DHT22;23726;52.520;13.434;2023-02-12T14:11:33;22.00;43.50
37886;DHT22;23726;52.520;13.434;2023-02-12T14:14:10;22.00;43.50
37886;DHT22;23726;52.520;13.434;2023-02-12T14:16:39;22.00;43.50
37886;DHT22;23726;52.520;13.434;2023-02-12T14:28:21;22.00;43.20
37886;DHT22;23726;52.520;13.434;2023-02-12T14:33:48;22.00;43.10
37886;DHT22;23726;52.520;13.434;2023-02-12T14:39:04;21.90;42.80
37886;DHT22;23726;52.520;13.434;2023-02-12T14:41:32;21.90;42.80
37886;DHT22;23726;52.520;13.434;2023-02-12T14:56:25;21.90;42.20
37886;DHT22;23726;52.520;13.434;2023-02-12T14:59:47;21.90;41.70
37886;DHT22;23726;52.520;13.434;2023-02-12T15:02:25;21.90;42.00
37886;DHT22;23726;52.520;13.434;2023-02-12T15:04:53;21.90;42.10
37886;DHT22;23726;52.520;13.434;2023-02-12T15:07:35;21.90;42.10
37886;DHT22;23726;52.520;13.434;2023-02-12T15:10:12;21.90;42.10
37886;DHT22;23726;52.520;13.434;2023-02-12T15:13:07;21.90;42.20
37886;DHT22;23726;52.520;13.434;2023-02-12T15:15:56;21.90;41.80
37886;DHT22;23726;52.520;13.434;2023-02-12T15:21:25;21.90;41.80
37886;DHT22;23726;52.520;13.434;2023-02-12T15:27:20;21.90;41.60
37886;DHT22;23726;52.520;13.434;2023-02-12T15:29:51;21.90;41.90
37886;DHT22;23726;52.520;13.434;2023-02-12T15:32:28;21.90;41.90
37886;DHT22;23726;52.520;13.434;2023-02-12T15:34:55;21.90;42.00
37886;DHT22;23726;52.520;13.434;2023-02-12T15:37:29;21.90;41.90
37886;DHT22;23726;52.520;13.434;2023-02-12T15:39:59;21.90;41.60
37886;DHT22;23726;52.520;13.434;2023-02-12T15:42:32;21.90;41.50
37886;DHT22;23726;52.520;13.434;2023-02-12T15:45:29;21.90;41.80
37886;DHT22;23726;52.520;13.434;2023-02-12T15:48:12;21.90;42.00
37886;DHT22;23726;52.520;13.434;2023-02-12T15:50:55;21.80;42.60
37886;DHT22;23726;52.520;13.434;2023-02-12T15:53:25;21.80;42.10
37886;DHT22;23726;52.520;13.434;2023-02-12T15:55:52;21.80;42.10
37886;DHT22;23726;52.520;13.434;2023-02-12T15:58:32;21.80;42.10
37886;DHT22;23726;52.520;13.434;2023-02-12T16:01:04;21.80;42.60
37886;DHT22;23726;52.520;13.434;2023-02-12T16:03:36;21.80;42.00
37886;DHT22;23726;52.520;13.434;2023-02-12T16:06:07;21.80;42.10
37886;DHT22;23726;52.520;13.434;2023-02-12T16:08:40;21.80;41.70
37886;DHT22;23726;52.520;13.434;2023-02-12T16:11:08;21.90;42.00
37886;DHT22;23726;52.520;13.434;2023-02-12T16:13:53;21.90;41.40
37886;DHT22;23726;52.520;13.434;2023-02-12T16:16:57;21.90;41.20
37886;DHT22;23726;52.520;13.434;2023-02-12T16:19:23;22.00;41.30
37886;DHT22;23726;52.520;13.434;2023-02-12T16:26:51;22.00;41.20
37886;DHT22;23726;52.520;13.434;2023-02-12T16:29:18;22.10;41.40
37886;DHT22;23726;52.520;13.434;2023-02-12T16:31:59;22.10;41.30
37886;DHT22;23726;52.520;13.434;2023-02-12T16:34:29;22.10;41.40
37886;DHT22;23726;52.520;13.434;2023-02-12T16:36:57;22.10;41.40
37886;DHT22;23726;52.520;13.434;2023-02-12T16:42:24;22.10;41.40
37886;DHT22;23726;52.520;13.434;2023-02-12T16:44:54;22.20;41.50
37886;DHT22;23726;52.520;13.434;2023-02-12T16:47:23;22.20;41.50
37886;DHT22;23726;52.520;13.434;2023-02-12T16:50:16;22.20;41.60
37886;DHT22;23726;52.520;13.434;2023-02-12T16:52:42;22.20;41.60
37886;DHT22;23726;52.520;13.434;2023-02-12T16:55:13;22.20;41.60
37886;DHT22;23726;52.520;13.434;2023-02-12T16:57:39;22.20;41.60
37886;DHT22;23726;52.520;13.434;2023-02-12T17:00:06;22.20;41.60
37886;DHT22;23726;52.520;13.434;2023-02-12T17:02:33;22.20;41.70
37886;DHT22;23726;52.520;13.434;2023-02-12T17:05:01;22.20;41.70
37886;DHT22;23726;52.520;13.434;2023-02-12T17:07:30;22.20;41.60
37886;DHT22;23726;52.520;13.434;2023-02-12T17:09:56;22.20;41.70
37886;DHT22;23726;52.520;13.434;2023-02-12T17:12:22;22.30;41.70
37886;DHT22;23726;52.520;13.434;2023-02-12T17:14:48;22.30;41.70
37886;DHT22;23726;52.520;13.434;2023-02-12T17:17:13;22.30;41.80
37886;DHT22;23726;52.520;13.434;2023-02-12T17:19:39;22.30;41.70
37886;DHT22;23726;52.520;13.434;2023-02-12T17:22:07;22.30;41.70
37886;DHT22;23726;52.520;13.434;2023-02-12T17:24:39;22.30;42.00
37886;DHT22;23726;52.520;13.434;2023-02-12T17:27:05;22.40;41.90
37886;DHT22;23726;52.520;13.434;2023-02-12T17:29:32;22.30;41.90
37886;DHT22;23726;52.520;13.434;2023-02-12T17:31:59;22.30;41.90
37886;DHT22;23726;52.520;13.434;2023-02-12T17:34:24;22.30;41.90
37886;DHT22;23726;52.520;13.434;2023-02-12T17:36:51;22.40;42.00
37886;DHT22;23726;52.520;13.434;2023-02-12T17:39:17;22.40;42.00
37886;DHT22;23726;52.520;13.434;2023-02-12T17:41:43;22.40;42.00
37886;DHT22;23726;52.520;13.434;2023-02-12T17:44:09;22.40;42.00
37886;DHT22;23726;52.520;13.434;2023-02-12T17:46:38;22.40;42.00
37886;DHT22;23726;52.520;13.434;2023-02-12T17:49:03;22.40;42.00
37886;DHT22;23726;52.520;13.434;2023-02-12T17:51:29;22.40;42.00
37886;DHT22;23726;52.520;13.434;2023-02-12T17:53:55;22.40;42.00
37886;DHT22;23726;52.520;13.434;2023-02-12T17:56:22;22.40;42.00
37886;DHT22;23726;52.520;13.434;2023-02-12T17:58:50;22.40;42.00
37886;DHT22;23726;52.520;13.434;2023-02-12T18:01:19;22.40;42.10
37886;DHT22;23726;52.520;13.434;2023-02-12T18:03:48;22.40;42.10
37886;DHT22;23726;52.520;13.434;2023-02-12T18:06:23;22.40;42.10
37886;DHT22;23726;52.520;13.434;2023-02-12T18:08:50;22.30;42.10
37886;DHT22;23726;52.520;13.434;2023-02-12T18:11:17;22.40;42.20
37886;DHT22;23726;52.520;13.434;2023-02-12T18:13:46;22.40;42.20
37886;DHT22;23726;52.520;13.434;2023-02-12T18:16:12;22.40;42.20
37886;DHT22;23726;52.520;13.434;2023-02-12T18:18:40;22.30;42.30
37886;DHT22;23726;52.520;13.434;2023-02-12T18:21:12;22.30;42.20